Time;durP1;ratioP1;P1;durP2;ratioP2;P2;SDS_P1;SDS_P2;PMS_P1;PMS_P2;Temp;Humidity;BMP_temperature;BMP_pressure;BME280_temperature;BME280_humidity;BME280_pressure;Samples;Min_cycle;Max_cycle;Signal;HPM_P1;HPM_P2
2022/12/22 03:26:39;;;;;;;;;;;8.70;99.90;;;;;;5055061;28;19919;-72
2022/12/22 03:29:05;;;;;;;;;;;8.70;99.90;;;;;;5076983;28;20306;-72
2022/12/22 03:31:32;;;;;;;;;;;8.70;99.90;;;;;;5057054;28;20023;-72
2022/12/22 03:33:57;;;;;;;;;;;8.70;99.90;;;;;;5055468;28;20531;-72
2022/12/22 03:36:23;;;;;;;;;;;8.70;99.90;;;;;;5059155;28;20365;-71
2022/12/22 03:38:48;;;;;;;;;;;8.80;99.90;;;;;;5061394;28;20189;-71
2022/12/22 03:46:46;;;;;;;;;;;8.80;99.90;;;;;;5041248;28;19944;-73
2022/12/22 03:49:11;;;;;;;;;;;8.80;99.90;;;;;;5054900;28;19947;-72
2022/12/22 03:51:40;;;;;;;;;;;8.80;99.90;;;;;;5037084;28;20342;-72
2022/12/22 03:54:06;;;;;;;;;;;8.80;99.90;;;;;;5073589;28;19947;-72
2022/12/22 03:56:32;;;;;;;;;;;8.90;99.90;;;;;;5074389;28;20321;-72
2022/12/22 03:58:58;;;;;;;;;;;8.90;99.90;;;;;;5062989;28;20346;-72
2022/12/22 04:01:23;;;;;;;;;;;8.90;99.90;;;;;;5038207;28;19952;-72
2022/12/22 04:03:49;;;;;;;;;;;8.80;99.90;;;;;;5068988;28;19916;-72
2022/12/22 04:06:15;;;;;;;;;;;8.90;99.90;;;;;;5068971;28;19955;-72
2022/12/22 04:08:40;;;;;;;;;;;8.90;99.90;;;;;;5062125;28;19912;-72
2022/12/22 04:13:50;;;;;;;;;;;8.90;99.90;;;;;;5060101;28;19966;-72
2022/12/22 04:16:16;;;;;;;;;;;8.90;99.90;;;;;;5081237;28;19944;-72
2022/12/22 04:18:42;;;;;;;;;;;8.90;99.90;;;;;;5039573;28;20470;-71
2022/12/22 04:21:07;;;;;;;;;;;8.90;99.90;;;;;;5041305;28;19912;-71
2022/12/22 04:23:33;;;;;;;;;;;8.90;99.90;;;;;;5078858;28;19923;-73
2022/12/22 04:25:58;;;;;;;;;;;8.90;99.90;;;;;;5053713;28;20417;-71
2022/12/22 04:28:24;;;;;;;;;;;8.90;99.90;;;;;;5036953;28;19952;-71
2022/12/22 04:30:50;;;;;;;;;;;8.90;99.90;;;;;;5045171;28;19912;-72
2022/12/22 04:33:16;;;;;;;;;;;8.90;99.90;;;;;;5061180;28;19912;-72
2022/12/22 04:35:41;;;;;;;;;;;8.90;99.90;;;;;;5047400;28;19973;-72
2022/12/22 04:38:08;;;;;;;;;;;8.90;99.90;;;;;;5059542;28;19912;-71
2022/12/22 04:40:33;;;;;;;;;;;8.90;99.90;;;;;;5037674;28;19912;-71
2022/12/22 04:42:59;;;;;;;;;;;8.80;99.90;;;;;;5059724;28;19920;-72
2022/12/22 04:45:25;;;;;;;;;;;8.80;99.90;;;;;;5078220;28;19912;-73
2022/12/22 04:47:50;;;;;;;;;;;8.80;99.90;;;;;;5071583;28;19998;-72
2022/12/22 04:50:16;;;;;;;;;;;8.80;99.90;;;;;;5048280;28;20051;-72
2022/12/22 04:52:41;;;;;;;;;;;8.70;99.90;;;;;;5019871;28;19938;-72
2022/12/22 04:55:08;;;;;;;;;;;8.70;99.90;;;;;;5060248;28;19958;-72
2022/12/22 04:57:33;;;;;;;;;;;8.70;99.90;;;;;;5055921;28;20291;-72
2022/12/22 04:59:59;;;;;;;;;;;8.70;99.90;;;;;;5053794;28;19916;-72
2022/12/22 05:02:25;;;;;;;;;;;8.70;99.90;;;;;;5051607;28;20010;-72
2022/12/22 05:04:50;;;;;;;;;;;8.70;99.90;;;;;;5082075;28;19912;-71
2022/12/22 05:07:16;;;;;;;;;;;8.70;99.90;;;;;;5055023;28;19923;-73
2022/12/22 05:09:41;;;;;;;;;;;8.70;99.90;;;;;;5056350;28;19911;-73
2022/12/22 05:14:51;;;;;;;;;;;8.70;99.90;;;;;;5045380;28;19920;-73
2022/12/22 05:17:17;;;;;;;;;;;8.80;99.90;;;;;;5055407;28;19912;-72
2022/12/22 05:19:43;;;;;;;;;;;8.70;99.90;;;;;;5036579;28;19919;-72
2022/12/22 05:22:08;;;;;;;;;;;8.70;99.90;;;;;;5053367;28;19916;-73
2022/12/22 05:24:34;;;;;;;;;;;8.70;99.90;;;;;;5051469;28;20239;-72
2022/12/22 05:27:00;;;;;;;;;;;8.70;99.90;;;;;;5053167;28;20269;-72
2022/12/22 05:29:25;;;;;;;;;;;8.70;99.90;;;;;;5057672;28;19958;-73
2022/12/22 05:31:51;;;;;;;;;;;8.70;99.90;;;;;;5022057;28;19912;-73
2022/12/22 05:34:16;;;;;;;;;;;8.60;99.90;;;;;;5076951;28;19912;-71
2022/12/22 05:36:42;;;;;;;;;;;8.60;99.90;;;;;;5081523;28;19919;-72
2022/12/22 05:39:08;;;;;;;;;;;8.60;99.90;;;;;;5066845;28;19915;-72
2022/12/22 05:41:33;;;;;;;;;;;8.60;99.90;;;;;;5040932;28;20022;-73
2022/12/22 05:43:59;;;;;;;;;;;8.50;99.90;;;;;;5062142;28;19916;-72
2022/12/22 05:46:24;;;;;;;;;;;8.50;99.90;;;;;;5080837;28;20250;-72
2022/12/22 05:48:50;;;;;;;;;;;8.50;99.90;;;;;;5047656;28;19966;-72
2022/12/22 05:51:16;;;;;;;;;;;8.50;99.90;;;;;;5050640;28;20250;-73
2022/12/22 05:53:41;;;;;;;;;;;8.40;99.90;;;;;;5052355;28;19912;-73
2022/12/22 05:56:07;;;;;;;;;;;8.40;99.90;;;;;;5068238;28;19912;-73
2022/12/22 05:58:33;;;;;;;;;;;8.40;99.90;;;;;;5035834;28;19920;-72
2022/12/22 06:00:59;;;;;;;;;;;8.50;99.90;;;;;;5052573;28;19923;-72
2022/12/22 06:03:25;;;;;;;;;;;8.50;99.90;;;;;;5089320;28;20341;-73
2022/12/22 06:05:51;;;;;;;;;;;8.50;99.90;;;;;;5042421;28;19919;-72
2022/12/22 06:08:16;;;;;;;;;;;8.40;99.90;;;;;;5065964;28;19912;-73
2022/12/22 06:10:42;;;;;;;;;;;8.50;99.90;;;;;;5034653;28;20672;-73
2022/12/22 06:13:08;;;;;;;;;;;8.50;99.90;;;;;;5074453;28;19940;-73
2022/12/22 06:15:33;;;;;;;;;;;8.50;99.90;;;;;;5076132;28;19919;-73
2022/12/22 06:17:59;;;;;;;;;;;8.50;99.90;;;;;;5041300;28;20312;-73
2022/12/22 06:20:24;;;;;;;;;;;8.60;99.90;;;;;;5033704;28;20291;-72
2022/12/22 06:22:50;;;;;;;;;;;8.50;99.90;;;;;;5051403;28;19920;-72
2022/12/22 06:25:16;;;;;;;;;;;8.60;99.90;;;;;;5051007;28;19912;-73
2022/12/22 06:27:41;;;;;;;;;;;8.60;99.90;;;;;;5069952;28;19908;-72
2022/12/22 06:30:07;;;;;;;;;;;8.50;99.90;;;;;;5064549;28;19920;-72
2022/12/22 06:32:36;;;;;;;;;;;8.60;99.90;;;;;;5040201;28;19919;-72
2022/12/22 06:35:02;;;;;;;;;;;8.50;99.90;;;;;;5052069;28;19951;-73
2022/12/22 06:37:28;;;;;;;;;;;8.50;99.90;;;;;;5068601;28;19912;-72
2022/12/22 06:39:53;;;;;;;;;;;8.50;99.90;;;;;;5041618;28;19931;-72
2022/12/22 06:45:03;;;;;;;;;;;8.40;99.90;;;;;;5043864;28;20292;-72
2022/12/22 06:47:29;;;;;;;;;;;8.40;99.90;;;;;;5033180;28;19916;-72
2022/12/22 06:49:55;;;;;;;;;;;8.40;99.90;;;;;;5052567;28;20614;-72
2022/12/22 06:52:20;;;;;;;;;;;8.40;99.90;;;;;;5047948;28;19916;-73
2022/12/22 06:54:47;;;;;;;;;;;8.40;99.90;;;;;;5065264;28;19912;-71
2022/12/22 06:57:14;;;;;;;;;;;8.40;99.90;;;;;;5036630;28;19915;-73
2022/12/22 06:59:40;;;;;;;;;;;8.40;99.90;;;;;;5069571;28;20357;-76
2022/12/22 07:02:05;;;;;;;;;;;8.30;99.90;;;;;;5052481;28;19995;-74
2022/12/22 07:04:31;;;;;;;;;;;8.30;99.90;;;;;;5056426;28;19919;-72
2022/12/22 07:06:57;;;;;;;;;;;8.20;99.90;;;;;;5042349;28;19922;-73
2022/12/22 07:09:22;;;;;;;;;;;8.20;99.90;;;;;;5067726;28;19963;-73
2022/12/22 07:11:49;;;;;;;;;;;8.20;99.90;;;;;;5045451;28;20034;-73
2022/12/22 07:14:14;;;;;;;;;;;8.10;99.90;;;;;;5071092;28;19973;-72
2022/12/22 07:16:40;;;;;;;;;;;8.10;99.90;;;;;;5072803;28;20547;-72
2022/12/22 07:19:06;;;;;;;;;;;8.10;99.90;;;;;;5055187;28;19918;-74
2022/12/22 07:21:31;;;;;;;;;;;8.00;99.90;;;;;;5021149;28;19944;-72
2022/12/22 07:23:57;;;;;;;;;;;8.00;99.90;;;;;;5036930;28;19912;-72
2022/12/22 07:26:22;;;;;;;;;;;8.10;99.90;;;;;;5054996;28;20626;-71
2022/12/22 07:28:48;;;;;;;;;;;8.00;99.90;;;;;;5070035;28;19921;-72
2022/12/22 07:31:14;;;;;;;;;;;8.00;99.90;;;;;;5054570;28;20405;-73
2022/12/22 07:33:40;;;;;;;;;;;8.00;99.90;;;;;;5044769;28;19927;-71
2022/12/22 07:36:13;;;;;;;;;;;8.00;99.90;;;;;;5052644;28;19939;-72
2022/12/22 07:38:40;;;;;;;;;;;8.00;99.90;;;;;;5063615;28;19938;-73
2022/12/22 07:42:43;;;;;;;;;;;8.00;99.90;;;;;;5074016;28;19908;-74
2022/12/22 07:43:55;;;;;;;;;;;8.00;99.90;;;;;;5045973;28;19962;-72
2022/12/22 07:46:21;;;;;;;;;;;8.10;99.90;;;;;;5053950;28;19920;-73
2022/12/22 07:51:32;;;;;;;;;;;8.10;99.90;;;;;;5057279;28;19912;-72
2022/12/22 07:53:58;;;;;;;;;;;8.10;99.90;;;;;;5036485;28;19916;-73
2022/12/22 07:56:23;;;;;;;;;;;8.10;99.90;;;;;;5054785;28;19966;-72
2022/12/22 07:58:49;;;;;;;;;;;8.10;99.90;;;;;;5084367;28;19920;-72
2022/12/22 08:01:15;;;;;;;;;;;8.10;99.90;;;;;;5051761;28;19913;-72
2022/12/22 08:03:40;;;;;;;;;;;8.10;99.90;;;;;;5037909;28;19943;-72
2022/12/22 08:06:06;;;;;;;;;;;8.20;99.90;;;;;;5054354;28;19913;-73
2022/12/22 08:08:32;;;;;;;;;;;8.20;99.90;;;;;;5037761;28;19952;-73
2022/12/22 08:11:00;;;;;;;;;;;8.20;99.90;;;;;;5054262;28;20619;-73
2022/12/22 08:13:26;;;;;;;;;;;8.20;99.90;;;;;;5037618;28;20318;-72
2022/12/22 08:15:52;;;;;;;;;;;8.30;99.90;;;;;;5068827;28;19924;-73
2022/12/22 08:18:17;;;;;;;;;;;8.30;99.90;;;;;;5073773;28;19912;-73
2022/12/22 08:20:49;;;;;;;;;;;8.30;99.90;;;;;;5054265;28;19923;-73
2022/12/22 08:23:15;;;;;;;;;;;8.30;99.90;;;;;;5060419;28;19927;-73
2022/12/22 08:25:41;;;;;;;;;;;8.30;99.90;;;;;;5052424;28;19912;-73
2022/12/22 08:28:07;;;;;;;;;;;8.30;99.90;;;;;;5054800;28;19978;-74
2022/12/22 08:30:33;;;;;;;;;;;8.30;99.90;;;;;;5042408;28;20027;-74
2022/12/22 08:32:59;;;;;;;;;;;8.40;99.90;;;;;;5061038;28;20023;-73
2022/12/22 08:35:25;;;;;;;;;;;8.40;99.90;;;;;;5054139;28;19912;-73
2022/12/22 08:37:51;;;;;;;;;;;8.30;99.90;;;;;;5054391;28;20286;-74
2022/12/22 08:40:19;;;;;;;;;;;8.30;99.90;;;;;;5052745;28;20003;-73
2022/12/22 08:42:44;;;;;;;;;;;8.40;99.90;;;;;;5056439;28;19955;-75
2022/12/22 08:45:11;;;;;;;;;;;8.40;99.90;;;;;;5031284;28;19944;-74
2022/12/22 08:47:36;;;;;;;;;;;8.40;99.90;;;;;;5040093;28;20347;-75
2022/12/22 08:50:02;;;;;;;;;;;8.40;99.90;;;;;;5051306;28;20002;-74
2022/12/22 08:52:29;;;;;;;;;;;8.40;99.90;;;;;;5040759;28;20420;-74
2022/12/22 08:54:54;;;;;;;;;;;8.40;99.90;;;;;;5044989;28;20655;-73
2022/12/22 08:57:20;;;;;;;;;;;8.40;99.90;;;;;;5055124;28;19935;-74
2022/12/22 08:59:46;;;;;;;;;;;8.40;99.90;;;;;;5054970;28;19912;-73
2022/12/22 09:02:12;;;;;;;;;;;8.40;99.90;;;;;;5054879;28;19917;-73
2022/12/22 09:04:38;;;;;;;;;;;8.40;99.90;;;;;;5042131;28;20349;-73
2022/12/22 09:07:03;;;;;;;;;;;8.40;99.90;;;;;;5053513;28;19912;-73
2022/12/22 09:09:30;;;;;;;;;;;8.40;99.90;;;;;;5036075;28;20378;-72
2022/12/22 09:11:56;;;;;;;;;;;8.50;99.90;;;;;;5037023;28;19912;-72
2022/12/22 09:14:22;;;;;;;;;;;8.50;99.90;;;;;;5054062;28;19916;-73
2022/12/22 09:16:47;;;;;;;;;;;8.50;99.90;;;;;;5067845;28;19919;-69
2022/12/22 09:19:13;;;;;;;;;;;8.50;99.90;;;;;;5052194;28;20282;-69
2022/12/22 09:21:38;;;;;;;;;;;8.50;99.90;;;;;;5075677;28;19912;-69
2022/12/22 09:24:06;;;;;;;;;;;8.50;99.90;;;;;;5072248;28;19912;-73
2022/12/22 09:26:32;;;;;;;;;;;8.50;99.90;;;;;;5042485;28;19918;-72
2022/12/22 09:28:57;;;;;;;;;;;8.50;99.90;;;;;;5051736;28;19912;-72
2022/12/22 09:31:23;;;;;;;;;;;8.50;99.90;;;;;;5035270;28;19924;-72
2022/12/22 09:33:49;;;;;;;;;;;8.50;99.90;;;;;;5052176;28;20050;-72
2022/12/22 09:36:16;;;;;;;;;;;8.50;99.90;;;;;;5034079;28;20002;-72
2022/12/22 09:38:42;;;;;;;;;;;8.50;99.90;;;;;;5035907;28;19942;-72
2022/12/22 09:41:15;;;;;;;;;;;8.50;99.90;;;;;;5035311;28;19912;-72
2022/12/22 09:43:40;;;;;;;;;;;8.50;99.90;;;;;;5046843;28;20656;-72
2022/12/22 09:46:18;;;;;;;;;;;8.50;99.90;;;;;;5036066;28;19920;-72
2022/12/22 09:48:50;;;;;;;;;;;8.50;99.90;;;;;;5051065;28;20306;-72
2022/12/22 09:51:17;;;;;;;;;;;8.50;99.90;;;;;;5039373;28;20391;-73
2022/12/22 09:53:43;;;;;;;;;;;8.50;99.90;;;;;;5033091;28;20365;-73
2022/12/22 09:56:10;;;;;;;;;;;8.60;99.90;;;;;;5040842;28;19912;-73
2022/12/22 09:58:36;;;;;;;;;;;8.60;99.90;;;;;;5051718;28;19916;-73
2022/12/22 10:01:20;;;;;;;;;;;8.60;99.90;;;;;;5081166;28;19916;-73
2022/12/22 10:03:48;;;;;;;;;;;8.70;99.90;;;;;;5080190;28;19919;-73
2022/12/22 10:06:19;;;;;;;;;;;8.60;99.90;;;;;;5075043;28;19969;-73
2022/12/22 10:08:44;;;;;;;;;;;8.70;99.90;;;;;;5058444;28;20335;-72
2022/12/22 10:11:14;;;;;;;;;;;8.70;99.90;;;;;;5051015;28;19912;-72
2022/12/22 10:13:39;;;;;;;;;;;8.70;99.90;;;;;;5039479;28;20286;-72
2022/12/22 10:16:32;;;;;;;;;;;8.70;99.90;;;;;;5050744;28;19923;-72
2022/12/22 10:18:59;;;;;;;;;;;8.80;99.90;;;;;;5042539;28;19978;-72
2022/12/22 10:21:28;;;;;;;;;;;8.80;99.90;;;;;;5047296;28;19923;-72
2022/12/22 10:23:53;;;;;;;;;;;8.80;99.90;;;;;;5033712;28;19928;-72
2022/12/22 10:26:23;;;;;;;;;;;8.80;99.90;;;;;;5044193;28;19912;-72
2022/12/22 10:29:03;;;;;;;;;;;8.80;99.90;;;;;;5050825;28;19912;-72
2022/12/22 10:31:38;;;;;;;;;;;8.80;99.90;;;;;;5049772;28;20309;-72
2022/12/22 10:34:15;;;;;;;;;;;8.80;99.90;;;;;;5019985;28;19912;-72
2022/12/22 10:36:51;;;;;;;;;;;8.80;99.90;;;;;;5035052;28;20318;-72
2022/12/22 10:39:21;;;;;;;;;;;8.80;99.90;;;;;;5060234;28;19951;-72
2022/12/22 10:41:47;;;;;;;;;;;8.80;99.90;;;;;;5021424;28;19921;-71
2022/12/22 10:44:20;;;;;;;;;;;8.90;99.90;;;;;;5064470;28;20299;-71
2022/12/22 10:46:49;;;;;;;;;;;8.90;99.90;;;;;;5070240;28;19916;-69
2022/12/22 10:49:22;;;;;;;;;;;8.90;99.90;;;;;;5038200;28;19917;-69
2022/12/22 10:51:54;;;;;;;;;;;8.90;99.90;;;;;;5037693;28;19913;-70
2022/12/22 10:54:24;;;;;;;;;;;9.00;99.90;;;;;;5064560;28;19920;-70
2022/12/22 10:57:09;;;;;;;;;;;8.90;99.90;;;;;;5072813;28;19923;-70
2022/12/22 10:59:34;;;;;;;;;;;9.00;99.90;;;;;;5068277;28;20521;-69
2022/12/22 11:02:23;;;;;;;;;;;8.90;99.90;;;;;;5056342;28;19920;-69
2022/12/22 11:04:49;;;;;;;;;;;8.90;99.90;;;;;;5034946;28;19912;-70
2022/12/22 11:07:15;;;;;;;;;;;8.90;99.90;;;;;;5050847;28;19928;-69
2022/12/22 11:09:40;;;;;;;;;;;8.90;99.90;;;;;;5053323;28;20003;-69
2022/12/22 11:12:18;;;;;;;;;;;9.00;99.90;;;;;;5044163;28;19941;-73
2022/12/22 11:14:47;;;;;;;;;;;9.00;99.90;;;;;;5038899;28;20468;-74
2022/12/22 11:17:21;;;;;;;;;;;9.10;99.90;;;;;;5055369;28;19924;-73
2022/12/22 11:19:50;;;;;;;;;;;9.10;99.90;;;;;;5045569;28;19912;-74
2022/12/22 11:22:27;;;;;;;;;;;9.10;99.90;;;;;;5092649;28;20006;-74
2022/12/22 11:24:56;;;;;;;;;;;9.10;99.90;;;;;;5060254;28;19920;-73
2022/12/22 11:27:38;;;;;;;;;;;9.20;99.90;;;;;;5068468;28;19963;-73
2022/12/22 11:30:15;;;;;;;;;;;9.20;99.90;;;;;;5034958;28;20325;-74
2022/12/22 11:32:46;;;;;;;;;;;9.30;99.90;;;;;;5039116;28;20401;-73
2022/12/22 11:35:30;;;;;;;;;;;9.40;99.90;;;;;;5039508;28;20234;-72
2022/12/22 11:38:15;;;;;;;;;;;9.50;99.90;;;;;;5053241;28;20003;-72
2022/12/22 11:40:47;;;;;;;;;;;9.60;99.90;;;;;;5053784;28;19912;-72
2022/12/22 11:43:33;;;;;;;;;;;9.60;99.90;;;;;;5052322;28;20031;-73
2022/12/22 11:46:12;;;;;;;;;;;9.60;99.90;;;;;;5052753;28;19927;-74
2022/12/22 11:48:56;;;;;;;;;;;9.70;99.90;;;;;;5033091;28;19973;-72
2022/12/22 11:51:24;;;;;;;;;;;9.70;99.90;;;;;;5068165;28;19916;-72
2022/12/22 11:54:09;;;;;;;;;;;9.80;99.90;;;;;;5058272;28;19916;-74
2022/12/22 11:56:42;;;;;;;;;;;9.90;99.90;;;;;;5043014;28;19955;-75
2022/12/22 11:59:34;;;;;;;;;;;9.90;99.90;;;;;;5042203;28;19923;-74
2022/12/22 12:02:12;;;;;;;;;;;10.00;99.90;;;;;;5036481;28;19916;-75
2022/12/22 12:04:47;;;;;;;;;;;10.00;99.90;;;;;;5072336;28;19919;-73
2022/12/22 12:07:23;;;;;;;;;;;10.00;99.90;;;;;;5052906;28;19955;-74
2022/12/22 12:09:49;;;;;;;;;;;10.00;99.90;;;;;;5037330;28;19932;-73
2022/12/22 12:12:27;;;;;;;;;;;10.10;99.90;;;;;;5054429;28;20287;-75
2022/12/22 12:15:11;;;;;;;;;;;10.00;99.90;;;;;;5053102;28;19913;-75
2022/12/22 12:17:56;;;;;;;;;;;10.10;99.90;;;;;;5036048;28;20356;-73
2022/12/22 12:20:43;;;;;;;;;;;10.10;99.90;;;;;;5041614;28;20538;-76
2022/12/22 12:23:28;;;;;;;;;;;10.10;99.90;;;;;;5053689;28;19916;-73
2022/12/22 12:25:56;;;;;;;;;;;10.00;99.90;;;;;;5058128;28;19911;-73
2022/12/22 12:28:25;;;;;;;;;;;10.20;99.90;;;;;;5059482;28;19939;-72
2022/12/22 12:30:54;;;;;;;;;;;10.20;99.90;;;;;;5036447;28;19931;-72
2022/12/22 12:33:29;;;;;;;;;;;10.00;99.90;;;;;;5036955;28;19920;-70
2022/12/22 12:35:58;;;;;;;;;;;9.80;99.90;;;;;;5072528;28;20333;-70
2022/12/22 12:38:32;;;;;;;;;;;9.60;99.90;;;;;;5072970;28;19912;-69
2022/12/22 12:41:16;;;;;;;;;;;9.70;99.90;;;;;;5064534;28;19924;-69
2022/12/22 12:43:42;;;;;;;;;;;9.60;99.90;;;;;;5039035;28;19923;-69
2022/12/22 12:46:27;;;;;;;;;;;9.60;99.90;;;;;;5046739;28;19912;-68
2022/12/22 12:48:55;;;;;;;;;;;9.60;99.90;;;;;;5052142;28;19916;-69
2022/12/22 12:51:39;;;;;;;;;;;9.50;99.90;;;;;;5036307;28;20412;-69
2022/12/22 12:54:22;;;;;;;;;;;9.50;99.90;;;;;;5057593;28;20326;-69
2022/12/22 12:57:14;;;;;;;;;;;9.40;99.90;;;;;;5053120;28;19919;-68
2022/12/22 12:59:39;;;;;;;;;;;9.40;99.90;;;;;;5067613;28;19920;-69
2022/12/22 13:02:24;;;;;;;;;;;9.40;99.90;;;;;;5068846;28;20219;-69
2022/12/22 13:04:59;;;;;;;;;;;9.40;99.90;;;;;;5065171;28;19985;-70
2022/12/22 13:07:44;;;;;;;;;;;9.40;99.90;;;;;;5039986;28;19962;-70
2022/12/22 13:10:38;;;;;;;;;;;9.40;99.90;;;;;;5077021;28;20692;-70
2022/12/22 13:13:04;;;;;;;;;;;9.40;99.90;;;;;;5038077;28;19919;-69
2022/12/22 13:15:34;;;;;;;;;;;9.30;99.90;;;;;;5047795;28;20342;-69
2022/12/22 13:18:00;;;;;;;;;;;9.40;99.90;;;;;;5072922;28;19916;-69
2022/12/22 13:20:27;;;;;;;;;;;9.40;99.90;;;;;;5050065;28;20632;-69
2022/12/22 13:22:53;;;;;;;;;;;9.40;99.90;;;;;;5068373;28;20011;-70
2022/12/22 13:25:19;;;;;;;;;;;9.30;99.90;;;;;;5034145;28;19916;-69
2022/12/22 13:27:45;;;;;;;;;;;9.30;99.90;;;;;;5084723;28;20514;-69
2022/12/22 13:30:14;;;;;;;;;;;9.20;99.90;;;;;;5069303;28;19912;-69
2022/12/22 13:32:40;;;;;;;;;;;9.30;99.90;;;;;;5055764;28;20441;-70
2022/12/22 13:35:19;;;;;;;;;;;9.30;99.90;;;;;;5041744;28;19991;-69
2022/12/22 13:37:46;;;;;;;;;;;9.20;99.90;;;;;;5052995;28;19940;-69
2022/12/22 13:40:15;;;;;;;;;;;9.20;99.90;;;;;;5049730;28;19912;-70
2022/12/22 13:42:51;;;;;;;;;;;9.10;99.90;;;;;;5034505;28;20026;-69
2022/12/22 13:45:19;;;;;;;;;;;9.10;99.90;;;;;;5034704;28;19966;-69
2022/12/22 13:47:46;;;;;;;;;;;9.10;99.90;;;;;;5026266;28;19928;-70
2022/12/22 13:50:24;;;;;;;;;;;9.00;99.90;;;;;;5046969;28;19969;-69
2022/12/22 13:52:51;;;;;;;;;;;9.10;99.90;;;;;;5042959;28;19927;-68
2022/12/22 13:55:17;;;;;;;;;;;9.10;99.90;;;;;;5056212;28;19951;-68
2022/12/22 13:57:43;;;;;;;;;;;9.00;99.90;;;;;;5040430;28;19984;-68
2022/12/22 14:00:19;;;;;;;;;;;9.10;99.90;;;;;;5044148;28;20341;-69
2022/12/22 14:02:46;;;;;;;;;;;9.00;99.90;;;;;;5041993;28;20062;-69
2022/12/22 14:05:14;;;;;;;;;;;9.00;99.90;;;;;;5044119;28;20026;-69
2022/12/22 14:07:56;;;;;;;;;;;9.00;99.90;;;;;;5050256;28;20021;-69
2022/12/22 14:10:29;;;;;;;;;;;8.90;99.90;;;;;;5038863;28;19912;-69
2022/12/22 14:12:55;;;;;;;;;;;8.90;99.90;;;;;;5050012;28;19912;-68
2022/12/22 14:15:20;;;;;;;;;;;8.90;99.90;;;;;;5040206;28;19925;-69
2022/12/22 14:17:47;;;;;;;;;;;8.90;99.90;;;;;;5015935;28;20031;-69
2022/12/22 14:20:31;;;;;;;;;;;8.90;99.90;;;;;;5048006;28;19912;-68
2022/12/22 14:23:16;;;;;;;;;;;8.90;99.90;;;;;;5030188;28;19974;-69
2022/12/22 14:25:42;;;;;;;;;;;8.90;99.90;;;;;;5056416;28;19997;-69
2022/12/22 14:28:12;;;;;;;;;;;8.80;99.90;;;;;;5035119;28;20340;-69
2022/12/22 14:30:40;;;;;;;;;;;8.80;99.90;;;;;;5030680;28;19912;-69
2022/12/22 14:33:30;;;;;;;;;;;8.80;99.90;;;;;;5039482;28;20511;-69
2022/12/22 14:36:13;;;;;;;;;;;8.70;99.90;;;;;;5064752;28;19995;-69
2022/12/22 14:38:55;;;;;;;;;;;8.70;99.90;;;;;;5034956;28;20280;-73
2022/12/22 14:44:25;;;;;;;;;;;8.80;99.90;;;;;;5040020;28;20284;-72
2022/12/22 14:47:03;;;;;;;;;;;8.60;99.90;;;;;;5034925;28;20380;-69
2022/12/22 14:49:29;;;;;;;;;;;8.70;99.90;;;;;;5064545;28;19932;-72
2022/12/22 14:52:00;;;;;;;;;;;8.70;99.90;;;;;;5047191;28;20773;-71
2022/12/22 14:54:29;;;;;;;;;;;8.70;99.90;;;;;;5031335;28;20047;-74
2022/12/22 14:56:58;;;;;;;;;;;8.70;99.90;;;;;;5042458;28;19958;-73
2022/12/22 14:59:27;;;;;;;;;;;8.60;99.90;;;;;;5046274;28;19912;-74
2022/12/22 15:02:00;;;;;;;;;;;8.60;99.90;;;;;;5033045;28;19912;-74
2022/12/22 15:04:27;;;;;;;;;;;8.50;99.90;;;;;;5039269;28;19955;-73
2022/12/22 15:07:02;;;;;;;;;;;8.50;99.90;;;;;;5081411;28;19931;-74
2022/12/22 15:09:28;;;;;;;;;;;8.50;99.90;;;;;;5045227;28;19938;-73
2022/12/22 15:12:04;;;;;;;;;;;8.50;99.90;;;;;;5072200;28;19913;-73
2022/12/22 15:14:30;;;;;;;;;;;8.30;99.90;;;;;;5021946;28;19916;-73
2022/12/22 15:16:56;;;;;;;;;;;8.40;99.90;;;;;;5048847;28;20093;-74
2022/12/22 15:19:22;;;;;;;;;;;8.30;99.90;;;;;;5048489;28;20038;-73
2022/12/22 15:21:48;;;;;;;;;;;8.30;99.90;;;;;;5065354;28;20721;-73
2022/12/22 15:24:14;;;;;;;;;;;8.30;99.90;;;;;;5052208;28;20330;-73
2022/12/22 15:26:41;;;;;;;;;;;8.30;99.90;;;;;;5058078;28;19916;-72
2022/12/22 15:29:06;;;;;;;;;;;8.30;99.90;;;;;;5047245;28;19918;-73
2022/12/22 15:31:32;;;;;;;;;;;8.30;99.90;;;;;;5023105;28;20564;-73
2022/12/22 15:33:58;;;;;;;;;;;8.30;99.90;;;;;;5069858;28;19987;-75
2022/12/22 15:36:23;;;;;;;;;;;8.30;99.90;;;;;;5044256;28;20388;-74
2022/12/22 15:38:50;;;;;;;;;;;8.20;99.90;;;;;;5047397;28;19913;-74
2022/12/22 15:41:15;;;;;;;;;;;8.10;99.90;;;;;;5068136;28;20405;-74
2022/12/22 15:43:41;;;;;;;;;;;8.20;99.90;;;;;;5078362;28;19923;-74
2022/12/22 15:46:06;;;;;;;;;;;8.20;99.90;;;;;;5024029;28;19919;-75
2022/12/22 15:48:35;;;;;;;;;;;8.20;99.90;;;;;;5038521;28;19977;-75
2022/12/22 15:51:01;;;;;;;;;;;8.20;99.90;;;;;;5037865;28;19916;-75
2022/12/22 15:53:27;;;;;;;;;;;8.10;99.90;;;;;;5044123;28;19916;-74
2022/12/22 15:55:53;;;;;;;;;;;8.10;99.90;;;;;;5044038;28;19912;-70
2022/12/22 15:58:22;;;;;;;;;;;8.00;99.90;;;;;;5044943;28;19920;-69
2022/12/22 16:00:48;;;;;;;;;;;8.00;99.90;;;;;;5033882;28;19908;-70
2022/12/22 16:03:14;;;;;;;;;;;8.00;99.90;;;;;;5026954;28;19943;-70
2022/12/22 16:05:39;;;;;;;;;;;8.00;99.90;;;;;;5033557;28;19927;-70
2022/12/22 16:08:08;;;;;;;;;;;7.90;99.90;;;;;;5016335;28;19912;-71
2022/12/22 16:10:34;;;;;;;;;;;7.90;99.90;;;;;;5049070;28;20153;-74
2022/12/22 16:13:00;;;;;;;;;;;7.90;99.90;;;;;;5057097;28;20408;-74
2022/12/22 16:15:27;;;;;;;;;;;7.80;99.90;;;;;;5051376;28;19985;-73
2022/12/22 16:17:53;;;;;;;;;;;7.80;99.90;;;;;;5050903;28;20297;-74
2022/12/22 16:20:19;;;;;;;;;;;7.80;99.90;;;;;;5057895;28;19912;-69
2022/12/22 16:22:45;;;;;;;;;;;7.80;99.90;;;;;;5048743;28;19916;-69
2022/12/22 16:25:12;;;;;;;;;;;7.70;99.90;;;;;;5050116;28;19912;-70
2022/12/22 16:27:37;;;;;;;;;;;7.70;99.90;;;;;;5048699;28;19912;-69
2022/12/22 16:30:03;;;;;;;;;;;7.60;99.90;;;;;;5033360;28;19912;-69
2022/12/22 16:32:30;;;;;;;;;;;7.70;99.90;;;;;;5067561;28;19923;-70
2022/12/22 16:35:00;;;;;;;;;;;7.60;99.90;;;;;;5039608;28;19954;-69
2022/12/22 16:37:25;;;;;;;;;;;7.60;99.90;;;;;;5016873;28;19965;-70
2022/12/22 16:39:51;;;;;;;;;;;7.60;99.90;;;;;;5065756;28;19912;-69
2022/12/22 16:42:20;;;;;;;;;;;7.60;99.90;;;;;;5072634;28;20507;-69
2022/12/22 16:44:46;;;;;;;;;;;7.60;99.90;;;;;;5049224;28;20160;-70
2022/12/22 16:47:15;;;;;;;;;;;7.50;99.90;;;;;;5066134;28;19965;-69
2022/12/22 16:49:42;;;;;;;;;;;7.50;99.90;;;;;;5039047;28;20035;-69
2022/12/22 16:52:08;;;;;;;;;;;7.50;99.90;;;;;;5039785;28;19973;-69
2022/12/22 16:54:34;;;;;;;;;;;7.50;99.90;;;;;;5033003;28;19912;-68
2022/12/22 16:57:00;;;;;;;;;;;7.40;99.90;;;;;;5026768;28;20066;-70
2022/12/22 16:59:25;;;;;;;;;;;7.50;99.90;;;;;;5067347;28;19912;-70
2022/12/22 17:01:51;;;;;;;;;;;7.40;99.90;;;;;;5038830;28;20419;-70
2022/12/22 17:04:22;;;;;;;;;;;7.40;99.90;;;;;;5017727;28;19912;-69
2022/12/22 17:06:49;;;;;;;;;;;7.40;99.90;;;;;;5033065;28;19912;-69
2022/12/22 17:09:16;;;;;;;;;;;7.40;99.90;;;;;;5032392;28;20696;-69
2022/12/22 17:11:43;;;;;;;;;;;7.40;99.90;;;;;;5046487;28;20004;-69
2022/12/22 17:14:34;;;;;;;;;;;7.40;99.90;;;;;;5029849;28;20720;-69
2022/12/22 17:17:00;;;;;;;;;;;7.40;99.90;;;;;;5045825;28;19944;-69
2022/12/22 17:19:26;;;;;;;;;;;7.40;99.90;;;;;;5032734;28;19962;-70
2022/12/22 17:21:52;;;;;;;;;;;7.40;99.90;;;;;;5062270;28;20613;-70
2022/12/22 17:24:18;;;;;;;;;;;7.40;99.90;;;;;;5044112;28;20418;-70
2022/12/22 17:26:43;;;;;;;;;;;7.40;99.90;;;;;;5031252;28;20007;-69
2022/12/22 17:29:16;;;;;;;;;;;7.40;99.90;;;;;;5032452;28;20330;-69
2022/12/22 17:31:41;;;;;;;;;;;7.40;99.90;;;;;;5029562;28;19965;-69
2022/12/22 17:34:13;;;;;;;;;;;7.40;99.90;;;;;;5048151;28;19912;-68
2022/12/22 17:36:39;;;;;;;;;;;7.40;99.90;;;;;;5038611;28;19912;-69
2022/12/22 17:39:05;;;;;;;;;;;7.40;99.90;;;;;;5033992;28;19919;-69
2022/12/22 17:41:30;;;;;;;;;;;7.30;99.90;;;;;;5033376;28;19924;-69
2022/12/22 17:43:56;;;;;;;;;;;7.40;99.90;;;;;;5032485;28;19916;-69
2022/12/22 17:46:22;;;;;;;;;;;7.40;99.90;;;;;;5029421;28;19916;-69
2022/12/22 17:48:47;;;;;;;;;;;7.40;99.90;;;;;;5052760;28;19912;-69
2022/12/22 17:51:17;;;;;;;;;;;7.40;99.90;;;;;;5031613;28;19916;-69
2022/12/22 17:53:43;;;;;;;;;;;7.40;99.90;;;;;;5044236;28;19916;-68
2022/12/22 17:56:12;;;;;;;;;;;7.30;99.90;;;;;;5032749;28;19940;-68
2022/12/22 17:58:42;;;;;;;;;;;7.30;99.90;;;;;;5055600;28;19923;-69
2022/12/22 18:01:17;;;;;;;;;;;7.30;99.90;;;;;;5046919;28;20310;-68
2022/12/22 18:03:42;;;;;;;;;;;7.30;99.90;;;;;;5065830;28;20254;-69
2022/12/22 18:06:08;;;;;;;;;;;7.20;99.90;;;;;;5051350;28;19916;-69
2022/12/22 18:08:34;;;;;;;;;;;7.20;99.90;;;;;;5015030;28;20483;-69
2022/12/22 18:11:00;;;;;;;;;;;7.20;99.90;;;;;;5031608;28;20324;-69
2022/12/22 18:13:25;;;;;;;;;;;7.20;99.90;;;;;;5019258;28;19922;-69
2022/12/22 18:15:52;;;;;;;;;;;7.10;99.90;;;;;;5041806;28;19912;-69
2022/12/22 18:18:17;;;;;;;;;;;7.20;99.90;;;;;;5047570;28;20327;-69
2022/12/22 18:20:43;;;;;;;;;;;7.20;99.90;;;;;;5020191;28;19912;-69
2022/12/22 18:23:11;;;;;;;;;;;7.20;99.90;;;;;;5047827;28;20011;-69